Time;durP1;ratioP1;P1;durP2;ratioP2;P2;SDS_P1;SDS_P2;PMS_P1;PMS_P2;Temp;Humidity;BMP_temperature;BMP_pressure;BME280_temperature;BME280_humidity;BME280_pressure;Samples;Min_cycle;Max_cycle;Signal;HPM_P1;HPM_P2
2022/09/19 00:01:17;;;;;;;4.43;1.40;;;11.00;84.30;;;;;;5043352;28;20171;-64
2022/09/19 00:03:45;;;;;;;6.40;1.48;;;11.00;85.00;;;;;;5041376;28;20070;-64
2022/09/19 00:06:13;;;;;;;3.95;1.50;;;11.00;84.30;;;;;;5035663;28;20025;-66
2022/09/19 00:08:42;;;;;;;9.60;1.80;;;11.10;84.40;;;;;;5046590;28;20057;-65
2022/09/19 00:11:09;;;;;;;9.30;2.05;;;11.10;84.40;;;;;;5042844;28;20017;-66
2022/09/19 00:13:37;;;;;;;6.63;1.52;;;11.10;84.30;;;;;;5041803;28;20072;-66
2022/09/19 00:16:03;;;;;;;9.05;1.90;;;11.10;84.30;;;;;;5046709;28;20032;-65
2022/09/19 00:18:29;;;;;;;7.25;1.80;;;11.10;84.20;;;;;;5037148;28;20021;-65
2022/09/19 00:20:55;;;;;;;5.10;1.50;;;11.10;84.20;;;;;;5033604;28;20021;-65
2022/09/19 00:26:11;;;;;;;6.30;1.58;;;11.10;84.20;;;;;;5041943;28;20040;-65
2022/09/19 00:28:38;;;;;;;8.85;1.98;;;11.10;84.20;;;;;;5043630;28;20037;-65
2022/09/19 00:31:04;;;;;;;6.20;1.73;;;11.10;84.20;;;;;;5045676;28;20017;-65
2022/09/19 00:33:32;;;;;;;8.82;1.80;;;11.10;84.20;;;;;;5049693;28;20479;-65
2022/09/19 00:36:02;;;;;;;5.63;1.50;;;11.20;84.20;;;;;;5037317;28;20096;-65
2022/09/19 00:38:28;;;;;;;8.05;2.17;;;11.20;84.20;;;;;;5045406;28;20396;-65
2022/09/19 00:40:55;;;;;;;6.80;1.98;;;11.20;84.20;;;;;;5049461;28;20029;-65
2022/09/19 00:43:22;;;;;;;6.30;1.60;;;11.20;84.20;;;;;;5052655;28;20118;-66
2022/09/19 00:45:48;;;;;;;3.45;1.40;;;11.10;84.30;;;;;;5046747;28;20488;-66
2022/09/19 00:48:16;;;;;;;3.35;1.27;;;11.10;84.40;;;;;;5049848;28;20036;-66
2022/09/19 00:50:44;;;;;;;7.30;2.05;;;11.10;84.40;;;;;;5043186;28;20391;-65
2022/09/19 00:53:17;;;;;;;6.97;1.92;;;11.10;84.50;;;;;;5050346;28;20488;-65
2022/09/19 00:55:43;;;;;;;6.15;1.60;;;11.10;84.60;;;;;;5046831;28;20044;-64
2022/09/19 00:58:22;;;;;;;6.05;1.75;;;11.10;84.50;;;;;;5051274;28;20021;-64
2022/09/19 01:00:49;;;;;;;8.02;1.70;;;11.10;84.50;;;;;;5049068;28;20021;-65
2022/09/19 01:03:14;;;;;;;5.30;1.75;;;11.10;84.50;;;;;;5052462;28;20092;-65
2022/09/19 01:05:59;;;;;;;5.28;1.40;;;11.10;84.40;;;;;;5047513;28;20035;-64
2022/09/19 01:08:28;;;;;;;5.57;1.50;;;11.20;84.40;;;;;;5048144;28;20025;-65
2022/09/19 01:11:01;;;;;;;6.40;1.55;;;11.20;84.30;;;;;;5035721;28;20028;-65
2022/09/19 01:13:38;;;;;;;5.55;1.40;;;11.20;84.30;;;;;;5049581;28;20082;-65
2022/09/19 01:16:04;;;;;;;6.40;1.55;;;11.20;84.20;;;;;;5047241;28;20043;-65
2022/09/19 01:18:37;;;;;;;7.47;1.60;;;11.20;84.10;;;;;;5049780;28;20607;-64
2022/09/19 01:21:38;;;;;;;5.28;1.60;;;11.20;84.20;;;;;;5039521;28;20626;-65
2022/09/19 01:24:07;;;;;;;5.63;1.52;;;11.20;84.20;;;;;;5034756;28;20037;-64
2022/09/19 01:26:58;;;;;;;5.00;1.40;;;11.20;84.20;;;;;;5046113;28;20039;-64
2022/09/19 01:29:40;;;;;;;6.90;1.67;;;11.20;84.30;;;;;;5052772;28;20432;-64
2022/09/19 01:32:12;;;;;;;7.22;1.48;;;11.20;84.40;;;;;;5049388;28;20162;-64
2022/09/19 01:34:40;;;;;;;;;;;11.30;84.50;;;;;;5048993;28;20029;-64
2022/09/19 01:37:14;;;;;;;4.78;1.55;;;11.30;84.40;;;;;;5046145;28;19954;-65
2022/09/19 01:39:43;;;;;;;7.55;1.42;;;11.30;84.40;;;;;;5049799;28;20021;-64
2022/09/19 01:42:13;;;;;;;6.90;1.45;;;11.30;84.50;;;;;;5045185;28;20146;-64
2022/09/19 01:44:39;;;;;;;6.53;1.75;;;11.20;84.50;;;;;;5051559;28;20037;-64
2022/09/19 01:47:32;;;;;;;5.55;1.67;;;11.20;84.50;;;;;;5050209;28;20032;-64
2022/09/19 01:50:14;;;;;;;7.45;1.63;;;11.20;84.60;;;;;;5046298;28;20047;-65
2022/09/19 01:53:15;;;;;;;4.90;1.48;;;11.20;84.60;;;;;;5051540;28;20033;-65
2022/09/19 01:55:51;;;;;;;6.38;1.60;;;11.20;84.60;;;;;;5079008;28;20093;-64
2022/09/19 01:58:40;;;;;;;6.70;1.58;;;11.20;84.60;;;;;;5054833;28;20069;-64
2022/09/19 02:01:28;;;;;;;6.40;1.58;;;11.20;84.70;;;;;;5040546;28;20071;-64
2022/09/19 02:04:15;;;;;;;8.85;1.60;;;11.20;84.60;;;;;;5045009;28;20163;-64
2022/09/19 02:07:06;;;;;;;7.20;1.65;;;11.20;84.70;;;;;;5045328;28;20063;-65
2022/09/19 02:09:47;;;;;;;5.15;1.42;;;11.20;84.60;;;;;;5042516;28;20044;-65
2022/09/19 02:12:16;;;;;;;6.57;2.00;;;11.20;84.60;;;;;;5040772;28;20686;-66
2022/09/19 02:14:52;;;;;;;6.30;1.65;;;11.20;84.60;;;;;;5046394;28;20051;-66
2022/09/19 02:17:29;;;;;;;5.13;1.40;;;11.20;84.70;;;;;;5047808;28;20126;-65
2022/09/19 02:20:00;;;;;;;9.23;1.85;;;11.10;84.60;;;;;;5058785;28;20025;-65
2022/09/19 02:22:33;;;;;;;6.65;1.70;;;11.20;84.70;;;;;;5049136;28;20025;-65
2022/09/19 02:25:05;;;;;;;6.95;1.50;;;11.20;84.70;;;;;;5042216;28;20027;-65
2022/09/19 02:27:37;;;;;;;4.38;1.27;;;11.20;84.60;;;;;;5050497;28;20031;-65
2022/09/19 02:30:08;;;;;;;8.63;1.80;;;11.10;84.60;;;;;;5040005;28;20056;-66
2022/09/19 02:32:35;;;;;;;7.68;1.70;;;11.10;84.60;;;;;;5049041;28;20068;-65
2022/09/19 02:35:01;;;;;;;6.40;1.50;;;11.10;84.60;;;;;;5048448;28;20017;-65
2022/09/19 02:37:33;;;;;;;3.75;1.30;;;11.20;84.70;;;;;;5049080;28;20092;-65
2022/09/19 02:40:05;;;;;;;8.23;1.80;;;11.20;84.70;;;;;;5046342;28;20024;-66
2022/09/19 02:42:37;;;;;;;5.05;1.55;;;11.10;84.60;;;;;;5046083;28;20391;-66
2022/09/19 02:45:17;;;;;;;6.68;1.40;;;11.10;84.70;;;;;;5040475;28;20021;-67
2022/09/19 02:47:49;;;;;;;6.50;1.40;;;11.10;84.70;;;;;;5048207;28;20549;-66
2022/09/19 02:50:27;;;;;;;5.70;1.80;;;11.10;84.70;;;;;;5043234;28;20411;-67
2022/09/19 02:52:55;;;;;;;5.18;1.50;;;11.10;84.70;;;;;;5041815;28;20032;-67
2022/09/19 02:55:25;;;;;;;5.18;1.42;;;11.00;84.70;;;;;;5041569;28;20487;-66
2022/09/19 02:57:55;;;;;;;8.23;1.88;;;11.10;84.90;;;;;;5050936;28;20051;-66
2022/09/19 03:00:21;;;;;;;7.65;1.63;;;11.00;84.90;;;;;;5047698;28;20030;-66
2022/09/19 03:04:11;;;;;;;7.20;1.35;;;11.10;85.00;;;;;;5041617;28;20079;-65
2022/09/19 03:05:55;;;;;;;7.40;1.65;;;11.10;85.00;;;;;;5040531;28;20051;-65
2022/09/19 03:08:24;;;;;;;3.75;1.25;;;11.10;85.00;;;;;;5038457;28;20026;-65
2022/09/19 03:10:53;;;;;;;5.38;1.17;;;11.10;84.90;;;;;;5044448;28;20041;-65
2022/09/19 03:13:24;;;;;;;6.22;1.52;;;11.10;84.90;;;;;;5045398;28;20029;-65
2022/09/19 03:16:15;;;;;;;5.40;1.48;;;11.10;84.90;;;;;;5045922;28;20487;-64
2022/09/19 03:18:45;;;;;;;11.43;1.95;;;11.10;84.90;;;;;;5043636;28;20043;-65
2022/09/19 03:21:12;;;;;;;7.28;1.50;;;11.10;85.10;;;;;;5039917;28;20028;-65
2022/09/19 03:23:45;;;;;;;4.80;1.35;;;11.20;85.20;;;;;;5041935;28;20064;-64
2022/09/19 03:26:17;;;;;;;6.22;1.35;;;11.20;85.20;;;;;;5046867;28;20104;-65
2022/09/19 03:28:43;;;;;;;5.75;1.33;;;11.20;85.10;;;;;;5049609;28;20025;-65
2022/09/19 03:31:09;;;;;;;5.05;1.35;;;11.20;85.20;;;;;;5043745;28;20028;-65
2022/09/19 03:33:34;;;;;;;3.10;1.30;;;11.20;85.80;;;;;;5050385;28;20032;-65
2022/09/19 03:36:07;;;;;;;5.75;1.30;;;11.20;85.20;;;;;;5042901;28;20021;-66
2022/09/19 03:38:36;;;;;;;4.40;1.20;;;11.20;85.40;;;;;;5038127;28;20033;-66
2022/09/19 03:41:02;;;;;;;5.75;1.50;;;11.10;85.50;;;;;;5044357;28;20043;-66
2022/09/19 03:43:29;;;;;;;5.90;1.50;;;11.20;85.60;;;;;;5046173;28;20531;-66
2022/09/19 03:45:56;;;;;;;5.82;1.75;;;11.10;85.70;;;;;;5047843;28;20025;-65
2022/09/19 03:48:21;;;;;;;6.00;1.30;;;11.20;85.70;;;;;;5042096;28;20056;-65
2022/09/19 03:50:47;;;;;;;4.90;1.38;;;11.20;85.60;;;;;;5046422;28;20041;-65
2022/09/19 03:53:13;;;;;;;6.85;1.60;;;11.20;85.60;;;;;;5045643;28;20404;-65
2022/09/19 03:55:40;;;;;;;5.75;1.33;;;11.20;85.60;;;;;;5046466;28;20110;-66
2022/09/19 03:58:06;;;;;;;6.65;1.65;;;11.20;85.60;;;;;;5048208;28;20013;-65
2022/09/19 04:00:31;;;;;;;8.18;1.65;;;11.20;85.60;;;;;;5045614;28;20114;-65
2022/09/19 04:02:57;;;;;;;4.95;1.60;;;11.20;85.60;;;;;;5048443;28;20032;-66
2022/09/19 04:05:23;;;;;;;5.70;1.50;;;11.20;85.70;;;;;;5046740;28;20036;-66
2022/09/19 04:07:48;;;;;;;6.93;1.20;;;11.20;85.70;;;;;;5039700;28;20061;-66
2022/09/19 04:10:15;;;;;;;3.15;1.10;;;11.30;85.60;;;;;;5042152;28;20025;-65
2022/09/19 04:12:41;;;;;;;5.93;1.33;;;11.30;85.50;;;;;;5048877;28;20053;-65
2022/09/19 04:15:07;;;;;;;5.95;1.50;;;11.30;85.50;;;;;;5052684;28;20125;-65
2022/09/19 04:17:33;;;;;;;4.30;1.23;;;11.30;85.50;;;;;;5051487;28;20082;-65
2022/09/19 04:19:58;;;;;;;6.75;1.70;;;11.30;85.50;;;;;;5050668;28;20430;-64
2022/09/19 04:22:24;;;;;;;4.97;1.30;;;11.30;85.40;;;;;;5051098;28;20057;-66
2022/09/19 04:24:51;;;;;;;7.50;1.42;;;11.30;85.40;;;;;;5051968;28;20514;-64
2022/09/19 04:27:18;;;;;;;4.20;1.40;;;11.30;85.40;;;;;;5047421;28;20059;-64
2022/09/19 04:29:43;;;;;;;5.28;1.58;;;11.30;85.40;;;;;;5052193;28;20029;-65
2022/09/19 04:32:10;;;;;;;4.97;1.33;;;11.40;85.50;;;;;;5046424;28;20035;-64
2022/09/19 04:34:35;;;;;;;5.72;1.80;;;11.40;85.50;;;;;;5053132;28;20035;-64
2022/09/19 04:37:03;;;;;;;5.85;1.33;;;11.40;85.50;;;;;;5046297;28;20384;-65
2022/09/19 04:39:29;;;;;;;6.10;1.52;;;11.40;85.70;;;;;;5051980;28;20017;-65
2022/09/19 04:41:56;;;;;;;5.43;1.60;;;11.40;85.70;;;;;;5046472;28;20013;-65
2022/09/19 04:44:22;;;;;;;5.18;1.42;;;11.40;85.60;;;;;;5050785;28;20751;-65
2022/09/19 04:46:50;;;;;;;5.28;1.35;;;11.50;86.30;;;;;;5047100;28;20029;-65
2022/09/19 04:49:16;;;;;;;4.88;1.35;;;11.50;85.60;;;;;;5044725;28;20024;-65
2022/09/19 04:51:42;;;;;;;4.57;1.27;;;11.50;85.60;;;;;;5046073;28;20029;-65
2022/09/19 04:54:09;;;;;;;4.82;1.23;;;11.50;85.50;;;;;;5052179;28;20395;-65
2022/09/19 04:56:35;;;;;;;5.72;1.50;;;11.50;85.60;;;;;;5051842;28;20029;-65
2022/09/19 04:59:01;;;;;;;6.70;1.67;;;11.50;85.50;;;;;;5051681;28;20025;-65
2022/09/19 05:01:27;;;;;;;4.10;1.50;;;11.50;85.50;;;;;;5052267;28;20055;-66
2022/09/19 05:03:53;;;;;;;3.85;1.20;;;11.50;85.50;;;;;;5052163;28;20095;-66
2022/09/19 05:06:18;;;;;;;4.93;1.20;;;11.50;85.50;;;;;;5051070;28;20033;-66
2022/09/19 05:08:44;;;;;;;5.32;1.30;;;11.50;85.50;;;;;;5044952;28;20025;-66
2022/09/19 05:11:10;;;;;;;8.70;1.48;;;11.50;85.50;;;;;;5047998;28;20388;-65
2022/09/19 05:13:40;;;;;;;6.18;1.40;;;11.50;85.60;;;;;;5042945;28;20068;-64
2022/09/19 05:16:07;;;;;;;4.63;1.38;;;11.50;86.30;;;;;;5052880;28;20028;-65
2022/09/19 05:18:35;;;;;;;4.03;1.38;;;11.60;85.70;;;;;;5051910;28;20037;-66
2022/09/19 05:21:14;;;;;;;6.18;1.30;;;11.50;85.80;;;;;;5048540;28;20024;-65
2022/09/19 05:23:41;;;;;;;5.20;1.40;;;11.60;86.00;;;;;;5044434;28;20104;-65
2022/09/19 05:26:16;;;;;;;4.30;1.38;;;11.60;86.00;;;;;;5052674;28;20029;-65
2022/09/19 05:28:43;;;;;;;6.28;1.50;;;11.60;86.00;;;;;;5048608;28;20022;-64
2022/09/19 05:31:09;;;;;;;5.47;1.40;;;11.60;85.90;;;;;;5052254;28;20387;-65
2022/09/19 05:33:36;;;;;;;7.38;1.30;;;11.60;85.90;;;;;;5051869;28;20522;-64
2022/09/19 05:36:02;;;;;;;3.78;1.30;;;11.70;85.90;;;;;;5048778;28;20036;-64
2022/09/19 05:38:30;;;;;;;5.55;1.67;;;11.70;85.80;;;;;;5040024;28;20048;-64
2022/09/19 05:40:58;;;;;;;3.72;1.20;;;11.70;85.80;;;;;;5043747;28;20020;-65
2022/09/19 05:43:24;;;;;;;4.40;1.27;;;11.80;85.70;;;;;;5048545;28;20021;-66
2022/09/19 05:45:52;;;;;;;5.18;1.40;;;11.80;85.70;;;;;;5052664;28;20100;-65
2022/09/19 05:48:18;;;;;;;5.82;1.20;;;11.80;85.70;;;;;;5038596;28;20152;-65
2022/09/19 05:50:43;;;;;;;5.40;1.30;;;11.80;85.80;;;;;;5044026;28;20044;-65
2022/09/19 05:55:57;;;;;;;4.05;1.13;;;11.90;85.80;;;;;;5040950;28;20095;-65
2022/09/19 05:58:24;;;;;;;4.85;1.13;;;11.90;85.70;;;;;;5046004;28;20024;-64
2022/09/19 06:00:50;;;;;;;4.10;1.38;;;12.00;85.60;;;;;;5041810;28;20017;-65
2022/09/19 06:03:16;;;;;;;7.35;1.40;;;12.00;85.60;;;;;;5041400;28;20100;-65
2022/09/19 06:05:44;;;;;;;4.03;1.40;;;12.10;85.40;;;;;;5047468;28;20460;-65
2022/09/19 06:08:11;;;;;;;3.50;0.98;;;12.20;85.40;;;;;;5041873;28;20042;-65
2022/09/19 06:10:39;;;;;;;5.70;1.50;;;12.30;85.20;;;;;;5042202;28;20021;-64
2022/09/19 06:13:12;;;;;;;4.47;1.55;;;12.50;85.10;;;;;;5051071;28;20025;-65
2022/09/19 06:15:38;;;;;;;4.22;1.35;;;12.60;84.80;;;;;;5045461;28;20025;-64
2022/09/19 06:18:04;;;;;;;5.45;1.40;;;12.70;84.70;;;;;;5050167;28;20021;-65
2022/09/19 06:20:29;;;;;;;7.47;1.10;;;12.80;84.40;;;;;;5044110;28;20100;-66
2022/09/19 06:22:57;;;;;;;3.35;1.17;;;12.90;84.20;;;;;;5045008;28;20096;-65
2022/09/19 06:25:25;;;;;;;5.05;1.30;;;13.00;84.00;;;;;;5046648;28;20472;-64
2022/09/19 06:27:59;;;;;;;3.67;1.30;;;13.10;83.60;;;;;;5046859;28;20044;-63
2022/09/19 06:30:25;;;;;;;7.10;1.70;;;13.10;83.50;;;;;;5040129;28;20121;-65
2022/09/19 06:32:52;;;;;;;4.60;1.48;;;13.10;83.60;;;;;;5049546;28;20090;-65
2022/09/19 06:35:22;;;;;;;4.22;1.30;;;13.10;83.60;;;;;;5039533;28;20484;-64
2022/09/19 06:37:48;;;;;;;4.55;1.30;;;13.00;83.70;;;;;;5048606;28;20059;-65
2022/09/19 06:40:17;;;;;;;5.68;1.50;;;13.00;83.90;;;;;;5041663;28;20056;-65
2022/09/19 06:42:44;;;;;;;6.20;1.35;;;13.00;84.00;;;;;;5048481;28;20074;-65
2022/09/19 06:45:10;;;;;;;5.18;1.30;;;13.10;83.90;;;;;;5042573;28;20384;-65
2022/09/19 06:47:35;;;;;;;3.45;1.17;;;13.20;83.80;;;;;;5034890;28;20033;-65
2022/09/19 06:50:01;;;;;;;5.13;1.27;;;13.20;83.60;;;;;;5047655;28;20376;-64
2022/09/19 06:52:27;;;;;;;6.28;1.30;;;13.20;83.40;;;;;;5048597;28;20037;-64
2022/09/19 06:54:53;;;;;;;5.30;1.20;;;13.30;83.30;;;;;;5049354;28;20025;-65
2022/09/19 06:57:19;;;;;;;5.25;1.52;;;13.30;83.30;;;;;;5043477;28;20017;-65
2022/09/19 06:59:45;;;;;;;4.25;1.30;;;13.50;83.40;;;;;;5037912;28;20017;-65
2022/09/19 07:02:10;;;;;;;4.43;1.20;;;13.60;83.10;;;;;;5039578;28;20422;-64
2022/09/19 07:04:36;;;;;;;7.35;1.52;;;13.80;82.90;;;;;;5043597;28;20112;-65
2022/09/19 07:07:03;;;;;;;5.70;1.35;;;13.90;82.30;;;;;;5039017;28;20064;-65
2022/09/19 07:09:29;;;;;;;5.10;1.38;;;14.00;82.00;;;;;;5045190;28;20032;-65
2022/09/19 07:11:56;;;;;;;4.35;1.20;;;14.00;81.70;;;;;;5038347;28;20025;-64
2022/09/19 07:14:22;;;;;;;6.65;1.50;;;14.00;81.70;;;;;;5049269;28;20102;-66
2022/09/19 07:16:48;;;;;;;4.82;1.33;;;13.90;81.80;;;;;;5047610;28;20488;-66
2022/09/19 07:19:14;;;;;;;7.13;1.55;;;13.90;81.80;;;;;;5044265;28;20029;-65
2022/09/19 07:21:40;;;;;;;5.40;1.30;;;13.90;81.90;;;;;;5039679;28;20471;-65
2022/09/19 07:24:06;;;;;;;6.07;1.65;;;13.90;82.00;;;;;;5039435;28;20115;-65
2022/09/19 07:26:32;;;;;;;5.18;1.70;;;13.80;82.00;;;;;;5040087;28;20514;-65
2022/09/19 07:28:57;;;;;;;4.47;1.30;;;13.90;82.10;;;;;;5045560;28;20025;-65
2022/09/19 07:31:24;;;;;;;6.30;1.13;;;14.00;82.10;;;;;;5038097;28;20235;-66
2022/09/19 07:33:49;;;;;;;6.55;1.42;;;14.00;81.90;;;;;;5042117;28;20013;-64
2022/09/19 07:36:15;;;;;;;5.80;1.27;;;14.10;81.80;;;;;;5037391;28;20083;-65
2022/09/19 07:38:40;;;;;;;5.63;1.50;;;14.20;81.70;;;;;;5035670;28;20029;-65
2022/09/19 07:41:06;;;;;;;7.28;1.70;;;14.40;81.30;;;;;;5042961;28;20086;-65
2022/09/19 07:43:32;;;;;;;6.30;1.50;;;14.50;81.00;;;;;;5040287;28;20100;-65
2022/09/19 07:45:57;;;;;;;7.57;1.40;;;14.60;80.70;;;;;;5041435;28;20048;-65
2022/09/19 07:48:23;;;;;;;7.93;1.70;;;14.70;80.70;;;;;;5036973;28;20021;-65
2022/09/19 07:50:49;;;;;;;4.80;1.63;;;14.80;80.40;;;;;;5034860;28;20087;-65
2022/09/19 07:53:23;;;;;;;3.80;1.20;;;14.90;80.30;;;;;;5038568;28;20032;-65
2022/09/19 07:55:55;;;;;;;4.70;1.25;;;14.90;80.20;;;;;;5041938;28;20478;-65
2022/09/19 07:58:23;;;;;;;5.90;1.33;;;14.90;80.20;;;;;;5037350;28;20045;-65
2022/09/19 08:00:49;;;;;;;4.78;1.20;;;15.00;80.20;;;;;;5042469;28;20021;-65
2022/09/19 08:03:17;;;;;;;3.03;1.23;;;15.00;80.20;;;;;;5041877;28;20014;-66
2022/09/19 08:05:46;;;;;;;3.63;1.27;;;15.00;80.30;;;;;;5040018;28;20036;-65
2022/09/19 08:08:13;;;;;;;5.07;1.30;;;15.00;80.30;;;;;;5038690;28;20041;-65
2022/09/19 08:10:42;;;;;;;4.30;1.10;;;15.00;80.40;;;;;;5039635;28;20072;-66
2022/09/19 08:13:09;;;;;;;4.95;1.45;;;15.00;80.40;;;;;;5039212;28;20113;-65
2022/09/19 08:15:36;;;;;;;6.30;1.30;;;15.10;80.30;;;;;;5038577;28;20025;-65
2022/09/19 08:18:03;;;;;;;5.85;1.40;;;15.20;80.40;;;;;;5036475;28;20014;-65
2022/09/19 08:20:31;;;;;;;6.82;1.38;;;15.20;80.10;;;;;;5039046;28;20927;-65
2022/09/19 08:22:58;;;;;;;6.03;1.40;;;15.20;80.10;;;;;;5041339;28;20059;-65
2022/09/19 08:25:25;;;;;;;4.63;1.30;;;15.30;80.00;;;;;;5041975;28;20525;-65
2022/09/19 08:27:51;;;;;;;6.47;1.30;;;15.30;79.90;;;;;;5040487;28;20029;-66
2022/09/19 08:30:18;;;;;;;4.25;1.30;;;15.40;79.70;;;;;;5041206;28;20048;-66
2022/09/19 08:32:45;;;;;;;5.78;1.70;;;15.40;79.50;;;;;;5041262;28;20494;-65
2022/09/19 08:35:11;;;;;;;6.43;1.50;;;15.40;79.30;;;;;;5046180;28;20032;-66
2022/09/19 08:37:36;;;;;;;5.15;1.20;;;15.50;79.30;;;;;;5045089;28;20403;-65
2022/09/19 08:40:18;;;;;;;7.85;1.92;;;15.60;79.20;;;;;;5039046;28;20025;-65
2022/09/19 08:43:05;;;;;;;5.32;1.52;;;15.60;78.80;;;;;;5040703;28;20024;-66
2022/09/19 08:46:09;;;;;;;3.22;1.10;;;15.60;78.70;;;;;;5034628;28;20061;-65
2022/09/19 08:49:02;;;;;;;6.38;1.33;;;15.70;78.70;;;;;;5041729;28;20052;-66
2022/09/19 08:51:49;;;;;;;7.20;1.70;;;15.80;78.40;;;;;;5040233;28;20503;-65
2022/09/19 08:54:24;;;;;;;4.72;1.40;;;15.80;78.20;;;;;;5036809;28;20052;-65
2022/09/19 08:56:50;;;;;;;7.20;1.77;;;15.90;77.80;;;;;;5039004;28;20013;-65
2022/09/19 08:59:23;;;;;;;4.65;1.38;;;16.00;77.40;;;;;;5044361;28;20021;-66
2022/09/19 09:01:55;;;;;;;5.82;1.63;;;16.20;77.20;;;;;;5042651;28;20022;-66
2022/09/19 09:04:30;;;;;;;5.63;1.80;;;16.20;76.80;;;;;;5042022;28;20033;-66
2022/09/19 09:07:15;;;;;;;3.67;1.00;;;16.20;76.40;;;;;;5045074;28;20056;-66
2022/09/19 09:10:08;;;;;;;4.70;1.10;;;16.20;76.10;;;;;;5042427;28;20480;-66
2022/09/19 09:12:40;;;;;;;4.28;1.08;;;16.40;75.90;;;;;;5041144;28;20033;-66
2022/09/19 09:15:20;;;;;;;4.30;1.20;;;16.60;75.10;;;;;;5040911;28;20132;-66
2022/09/19 09:18:33;;;;;;;6.45;1.25;;;16.80;74.50;;;;;;5045826;28;20502;-65
2022/09/19 09:21:07;;;;;;;5.63;1.27;;;16.90;73.70;;;;;;5042781;28;20033;-66
2022/09/19 09:23:40;;;;;;;6.13;1.30;;;16.60;73.30;;;;;;5046849;28;20031;-66
2022/09/19 09:26:13;;;;;;;5.05;1.15;;;16.30;74.10;;;;;;5046096;28;20021;-66
2022/09/19 09:29:17;;;;;;;6.40;1.20;;;16.10;75.10;;;;;;5045929;28;20869;-66
2022/09/19 09:31:56;;;;;;;2.92;0.82;;;15.80;76.00;;;;;;5051633;28;20062;-66
2022/09/19 09:34:48;;;;;;;3.55;1.00;;;15.50;76.80;;;;;;5043816;28;20033;-65
2022/09/19 09:37:27;;;;;;;3.13;0.88;;;15.30;77.40;;;;;;5041837;28;20648;-65
2022/09/19 09:40:12;;;;;;;3.03;0.73;;;15.20;77.70;;;;;;5048372;28;20017;-65
2022/09/19 09:42:55;;;;;;;1.60;0.70;;;15.20;78.00;;;;;;5038777;28;20032;-65
2022/09/19 09:45:22;;;;;;;2.95;0.70;;;15.30;78.10;;;;;;5040871;28;20080;-65
2022/09/19 09:48:11;;;;;;;3.08;0.80;;;15.40;77.90;;;;;;5044752;28;20112;-65
2022/09/19 09:50:46;;;;;;;2.90;0.80;;;15.50;77.80;;;;;;5045748;28;20435;-66
2022/09/19 09:53:41;;;;;;;2.67;0.70;;;15.50;77.70;;;;;;5045475;28;20031;-66
2022/09/19 09:56:21;;;;;;;1.90;0.60;;;15.50;77.90;;;;;;5044520;28;20469;-65
2022/09/19 09:59:04;;;;;;;3.95;1.02;;;15.50;77.90;;;;;;5040574;28;20518;-65
2022/09/19 10:04:59;;;;;;;3.50;0.90;;;15.60;78.20;;;;;;5047325;28;20063;-66
2022/09/19 10:07:58;;;;;;;2.85;0.90;;;15.80;77.90;;;;;;5042009;28;20055;-66
2022/09/19 10:10:26;;;;;;;1.95;0.93;;;15.90;77.60;;;;;;5045973;28;20029;-65
2022/09/19 10:13:20;;;;;;;1.50;1.00;;;15.90;77.40;;;;;;5049624;28;20061;-66
2022/09/19 10:15:52;;;;;;;2.28;0.80;;;16.00;77.20;;;;;;5043377;28;20135;-66
2022/09/19 10:18:21;;;;;;;2.08;0.90;;;15.90;77.10;;;;;;5047420;28;20045;-66
2022/09/19 10:20:49;;;;;;;3.08;1.00;;;15.90;77.20;;;;;;5045081;28;20028;-66
2022/09/19 10:23:23;;;;;;;2.83;1.10;;;16.00;77.00;;;;;;5044519;28;20508;-66
2022/09/19 10:25:51;;;;;;;3.15;1.00;;;16.10;76.60;;;;;;5047223;28;20135;-66
2022/09/19 10:28:31;;;;;;;2.65;0.90;;;16.20;76.40;;;;;;5043361;28;20086;-66
2022/09/19 10:30:59;;;;;;;2.47;0.90;;;16.40;76.30;;;;;;5044390;28;20668;-66
2022/09/19 10:33:28;;;;;;;2.10;0.70;;;16.60;75.90;;;;;;5042659;28;20111;-65
2022/09/19 10:35:58;;;;;;;3.03;0.60;;;16.70;73.80;;;;;;5045016;28;20154;-66
2022/09/19 10:38:26;;;;;;;2.17;0.50;;;16.50;73.00;;;;;;5045715;28;20044;-65
2022/09/19 10:41:00;;;;;;;1.05;0.40;;;16.30;73.20;;;;;;5046360;28;20041;-67
2022/09/19 10:43:37;;;;;;;0.98;0.50;;;16.20;73.50;;;;;;5043049;28;20029;-66
2022/09/19 10:46:15;;;;;;;1.95;0.63;;;16.10;73.40;;;;;;5042058;28;20043;-66
2022/09/19 10:48:50;;;;;;;3.10;0.70;;;16.00;73.60;;;;;;5045031;28;20030;-66
2022/09/19 10:51:16;;;;;;;1.45;0.50;;;15.80;73.80;;;;;;5045710;28;20026;-66
2022/09/19 10:53:46;;;;;;;1.88;0.50;;;15.70;74.10;;;;;;5037933;28;20115;-65
2022/09/19 10:56:23;;;;;;;1.75;0.60;;;15.70;74.50;;;;;;5043470;28;20667;-66
2022/09/19 10:59:18;;;;;;;1.80;0.60;;;15.70;74.90;;;;;;5045224;28;20024;-67
2022/09/19 11:02:09;;;;;;;3.00;0.80;;;15.70;75.20;;;;;;5039870;28;20025;-65
2022/09/19 11:04:36;;;;;;;1.40;0.57;;;15.70;75.30;;;;;;5044992;28;20396;-65
2022/09/19 11:07:19;;;;;;;2.13;0.90;;;15.80;75.40;;;;;;5037166;28;20021;-65
2022/09/19 11:09:45;;;;;;;1.60;0.70;;;15.80;75.40;;;;;;5041285;28;20185;-66
2022/09/19 11:12:14;;;;;;;1.00;0.50;;;16.00;75.30;;;;;;5047285;28;20507;-66
2022/09/19 11:14:41;;;;;;;1.88;0.73;;;16.10;74.70;;;;;;5049200;28;20033;-66
2022/09/19 11:17:46;;;;;;;0.63;0.30;;;16.20;74.00;;;;;;5046381;28;20056;-67
2022/09/19 11:20:50;;;;;;;1.73;0.52;;;16.40;73.60;;;;;;5039965;28;20023;-67
2022/09/19 11:23:33;;;;;;;2.60;0.77;;;16.60;72.40;;;;;;5043993;28;20037;-66
2022/09/19 11:26:27;;;;;;;1.88;0.70;;;16.80;71.40;;;;;;5038173;28;20058;-67
2022/09/19 11:29:21;;;;;;;2.10;0.60;;;16.90;69.60;;;;;;5048604;28;20043;-67
2022/09/19 11:32:06;;;;;;;1.35;0.50;;;17.00;67.60;;;;;;5046660;28;20032;-67
2022/09/19 11:35:00;;;;;;;1.30;0.55;;;17.20;67.10;;;;;;5042576;28;20067;-67
2022/09/19 11:37:32;;;;;;;1.17;0.60;;;17.40;66.90;;;;;;5045861;28;20029;-67
2022/09/19 11:40:07;;;;;;;3.75;0.98;;;17.60;66.90;;;;;;5042317;28;20021;-67
2022/09/19 11:42:46;;;;;;;2.05;0.70;;;17.60;66.40;;;;;;5048360;28;20105;-66
2022/09/19 11:45:17;;;;;;;3.90;1.13;;;17.60;66.00;;;;;;5047980;28;20025;-66
2022/09/19 11:48:01;;;;;;;2.50;0.80;;;17.60;65.60;;;;;;5048211;28;20552;-67
2022/09/19 11:50:33;;;;;;;3.05;0.77;;;17.60;65.30;;;;;;5047157;28;20480;-67
2022/09/19 11:53:39;;;;;;;2.17;0.70;;;17.70;65.10;;;;;;5039418;28;20119;-66
2022/09/19 11:56:35;;;;;;;2.80;1.13;;;17.80;64.80;;;;;;5048391;28;20527;-66
2022/09/19 11:59:30;;;;;;;13.45;9.82;;;17.90;64.40;;;;;;5037135;28;20444;-66
2022/09/19 12:01:59;;;;;;;5.10;2.92;;;17.80;62.40;;;;;;5035976;28;20037;-66
2022/09/19 12:04:42;;;;;;;2.13;1.30;;;17.80;62.00;;;;;;5048436;28;20023;-66
2022/09/19 12:07:18;;;;;;;2.15;0.93;;;18.00;62.10;;;;;;5038172;28;20110;-66
2022/09/19 12:10:02;;;;;;;2.83;1.40;;;18.10;61.80;;;;;;5046858;28;20522;-66
2022/09/19 12:12:31;;;;;;;1.98;0.70;;;18.20;61.20;;;;;;5048074;28;20089;-66
2022/09/19 12:15:12;;;;;;;2.05;0.90;;;18.20;59.50;;;;;;5048608;28;20571;-66
2022/09/19 12:17:42;;;;;;;2.55;0.82;;;18.20;59.90;;;;;;5048132;28;20033;-66
2022/09/19 12:20:25;;;;;;;3.35;0.90;;;18.30;59.70;;;;;;5046015;28;20487;-66
2022/09/19 12:22:56;;;;;;;2.58;0.82;;;18.20;58.70;;;;;;5043664;28;20072;-67
2022/09/19 12:25:29;;;;;;;1.70;0.63;;;18.10;58.30;;;;;;5048455;28;20040;-65
2022/09/19 12:28:13;;;;;;;2.22;0.70;;;18.00;59.70;;;;;;5049029;28;20050;-67
2022/09/19 12:30:44;;;;;;;2.08;0.80;;;17.80;59.30;;;;;;5045664;28;20025;-67
2022/09/19 12:33:19;;;;;;;1.25;0.68;;;17.60;59.80;;;;;;5049793;28;20025;-65
2022/09/19 12:36:04;;;;;;;3.15;0.80;;;17.50;60.60;;;;;;5051118;28;20063;-66
2022/09/19 12:38:53;;;;;;;2.17;0.80;;;17.60;60.90;;;;;;5047843;28;20053;-66
2022/09/19 12:41:36;;;;;;;2.40;1.00;;;17.80;61.00;;;;;;5045870;28;20063;-66
2022/09/19 12:44:26;;;;;;;2.67;0.93;;;17.80;60.50;;;;;;5043925;28;20021;-66
2022/09/19 12:47:23;;;;;;;2.30;1.13;;;17.90;60.10;;;;;;5050292;28;20029;-66
2022/09/19 12:50:03;;;;;;;2.03;0.90;;;18.10;59.90;;;;;;5047191;28;20060;-66
2022/09/19 12:52:44;;;;;;;1.95;0.82;;;18.10;59.00;;;;;;5051996;28;20460;-66
2022/09/19 12:55:20;;;;;;;1.60;0.50;;;18.20;58.90;;;;;;5040215;28;20020;-65
2022/09/19 12:58:01;;;;;;;2.03;0.80;;;18.30;59.00;;;;;;5048425;28;20398;-64
2022/09/19 13:00:29;;;;;;;2.80;0.90;;;18.40;58.40;;;;;;5043358;28;20021;-65
2022/09/19 13:03:13;;;;;;;1.83;0.77;;;18.50;58.00;;;;;;5047825;28;20013;-65
2022/09/19 13:05:45;;;;;;;3.40;0.77;;;18.50;57.70;;;;;;5046832;28;20031;-65
2022/09/19 13:08:27;;;;;;;2.60;0.80;;;18.40;57.60;;;;;;5047521;28;20017;-66
2022/09/19 13:11:12;;;;;;;2.00;0.63;;;18.30;57.50;;;;;;5047854;28;20557;-66
2022/09/19 13:13:47;;;;;;;1.48;0.55;;;18.20;58.10;;;;;;5046980;28;20314;-65
2022/09/19 13:16:16;;;;;;;1.05;0.50;;;18.00;58.30;;;;;;5046776;28;20056;-65
2022/09/19 13:24:41;;;;;;;2.40;0.70;;;18.00;57.20;;;;;;5036795;28;20056;-65
2022/09/19 13:27:09;;;;;;;2.33;0.60;;;18.10;56.60;;;;;;5048574;28;20543;-65
2022/09/19 13:29:35;;;;;;;1.15;0.70;;;18.10;56.70;;;;;;5049495;28;20484;-66
2022/09/19 13:32:03;;;;;;;2.63;0.77;;;18.20;56.60;;;;;;5046363;28;20086;-65